sensor_id;sensor_type;location;lat;lon;timestamp;pressure;altitude;pressure_sealevel;temperature;humidity
49393;BME280;35268;42.642;23.308;2023-04-01T00:00:19;93065.22;;;12.44;46.51
49393;BME280;35268;42.642;23.308;2023-04-01T00:02:45;93052.28;;;12.46;46.60
49393;BME280;35268;42.642;23.308;2023-04-01T00:05:11;93045.03;;;12.47;46.77
49393;BME280;35268;42.642;23.308;2023-04-01T00:07:38;93060.72;;;12.48;46.99
49393;BME280;35268;42.642;23.308;2023-04-01T00:10:06;93054.25;;;12.49;47.16
49393;BME280;35268;42.642;23.308;2023-04-01T00:12:31;93066.41;;;12.47;47.02
49393;BME280;35268;42.642;23.308;2023-04-01T00:14:57;93055.91;;;12.38;47.38
49393;BME280;35268;42.642;23.308;2023-04-01T00:17:23;93056.47;;;12.15;48.05
49393;BME280;35268;42.642;23.308;2023-04-01T00:19:48;93076.91;;;12.23;48.50
49393;BME280;35268;42.642;23.308;2023-04-01T00:22:13;93080.25;;;12.20;49.00
49393;BME280;35268;42.642;23.308;2023-04-01T00:24:39;93066.72;;;12.13;49.10
49393;BME280;35268;42.642;23.308;2023-04-01T00:27:05;93080.56;;;12.03;49.76
49393;BME280;35268;42.642;23.308;2023-04-01T00:29:30;93071.25;;;11.84;50.20
49393;BME280;35268;42.642;23.308;2023-04-01T00:31:57;93069.03;;;11.87;50.50
49393;BME280;35268;42.642;23.308;2023-04-01T00:34:23;93069.50;;;11.89;50.82
49393;BME280;35268;42.642;23.308;2023-04-01T00:36:52;93060.34;;;11.90;50.92
49393;BME280;35268;42.642;23.308;2023-04-01T00:39:19;93065.22;;;11.88;51.23
49393;BME280;35268;42.642;23.308;2023-04-01T00:41:44;93045.78;;;11.87;51.54
49393;BME280;35268;42.642;23.308;2023-04-01T00:44:18;93038.22;;;11.89;51.95
49393;BME280;35268;42.642;23.308;2023-04-01T00:46:43;93055.03;;;11.77;52.31
49393;BME280;35268;42.642;23.308;2023-04-01T00:49:09;93045.34;;;11.85;51.95
49393;BME280;35268;42.642;23.308;2023-04-01T00:51:36;93036.13;;;11.82;52.09
49393;BME280;35268;42.642;23.308;2023-04-01T00:54:04;93047.25;;;11.84;52.82
49393;BME280;35268;42.642;23.308;2023-04-01T00:56:39;93044.91;;;11.83;52.95
49393;BME280;35268;42.642;23.308;2023-04-01T00:59:11;93039.78;;;11.78;53.17
49393;BME280;35268;42.642;23.308;2023-04-01T01:01:38;93033.88;;;11.56;52.94
49393;BME280;35268;42.642;23.308;2023-04-01T01:04:04;93017.53;;;11.45;53.86
49393;BME280;35268;42.642;23.308;2023-04-01T01:12:28;92991.16;;;11.28;53.21
49393;BME280;35268;42.642;23.308;2023-04-01T01:29:08;92987.19;;;11.22;51.93
49393;BME280;35268;42.642;23.308;2023-04-01T01:31:47;92976.16;;;11.23;52.11
49393;BME280;35268;42.642;23.308;2023-04-01T01:36:56;92985.72;;;11.24;52.07
49393;BME280;35268;42.642;23.308;2023-04-01T01:39:26;92982.94;;;11.21;51.71
49393;BME280;35268;42.642;23.308;2023-04-01T01:41:55;92969.38;;;11.26;51.35
49393;BME280;35268;42.642;23.308;2023-04-01T01:44:23;92974.38;;;11.28;51.14
49393;BME280;35268;42.642;23.308;2023-04-01T01:46:51;92977.28;;;11.22;50.83
49393;BME280;35268;42.642;23.308;2023-04-01T01:49:17;92967.38;;;11.23;50.69
49393;BME280;35268;42.642;23.308;2023-04-01T01:51:44;92964.03;;;11.26;50.37
49393;BME280;35268;42.642;23.308;2023-04-01T01:54:17;92950.56;;;11.35;50.18
49393;BME280;35268;42.642;23.308;2023-04-01T01:56:45;92954.44;;;11.37;50.04
49393;BME280;35268;42.642;23.308;2023-04-01T01:59:14;92950.84;;;11.45;49.89
49393;BME280;35268;42.642;23.308;2023-04-01T02:01:43;92956.22;;;11.33;50.54
49393;BME280;35268;42.642;23.308;2023-04-01T02:04:11;92959.16;;;11.28;50.87
49393;BME280;35268;42.642;23.308;2023-04-01T02:06:41;92949.13;;;11.25;51.12
49393;BME280;35268;42.642;23.308;2023-04-01T02:09:08;92945.81;;;11.28;51.23
49393;BME280;35268;42.642;23.308;2023-04-01T02:11:46;92941.00;;;11.34;50.94
49393;BME280;35268;42.642;23.308;2023-04-01T02:14:27;92946.25;;;11.30;51.04
49393;BME280;35268;42.642;23.308;2023-04-01T02:17:09;92945.16;;;11.19;51.03
49393;BME280;35268;42.642;23.308;2023-04-01T02:19:39;92943.75;;;11.09;51.08
49393;BME280;35268;42.642;23.308;2023-04-01T02:22:10;92937.88;;;11.03;51.21
49393;BME280;35268;42.642;23.308;2023-04-01T02:24:37;92942.09;;;11.04;52.35
49393;BME280;35268;42.642;23.308;2023-04-01T02:27:05;92938.09;;;10.98;51.65
49393;BME280;35268;42.642;23.308;2023-04-01T02:29:31;92931.00;;;11.02;51.69
49393;BME280;35268;42.642;23.308;2023-04-01T02:31:56;92939.53;;;11.08;51.93
49393;BME280;35268;42.642;23.308;2023-04-01T02:34:24;92949.31;;;11.04;50.93
49393;BME280;35268;42.642;23.308;2023-04-01T02:36:51;92943.88;;;11.00;50.45
49393;BME280;35268;42.642;23.308;2023-04-01T02:39:16;92935.88;;;11.00;50.64
49393;BME280;35268;42.642;23.308;2023-04-01T02:41:44;92947.75;;;11.03;50.80
49393;BME280;35268;42.642;23.308;2023-04-01T02:44:11;92944.09;;;11.08;51.09
49393;BME280;35268;42.642;23.308;2023-04-01T02:46:37;92938.66;;;11.04;51.36
49393;BME280;35268;42.642;23.308;2023-04-01T02:49:03;92948.63;;;11.07;51.40
49393;BME280;35268;42.642;23.308;2023-04-01T02:51:28;92949.50;;;11.11;51.69
49393;BME280;35268;42.642;23.308;2023-04-01T02:53:54;92958.31;;;11.12;50.77
49393;BME280;35268;42.642;23.308;2023-04-01T02:56:20;92959.63;;;11.18;50.25
49393;BME280;35268;42.642;23.308;2023-04-01T02:58:46;92971.97;;;11.10;49.93
49393;BME280;35268;42.642;23.308;2023-04-01T03:01:11;92965.00;;;11.06;49.54
49393;BME280;35268;42.642;23.308;2023-04-01T03:03:37;92977.53;;;11.17;49.82
49393;BME280;35268;42.642;23.308;2023-04-01T03:06:10;92975.75;;;11.21;50.13
49393;BME280;35268;42.642;23.308;2023-04-01T03:08:36;92982.72;;;11.26;49.33
49393;BME280;35268;42.642;23.308;2023-04-01T03:11:01;92969.72;;;11.24;49.41
49393;BME280;35268;42.642;23.308;2023-04-01T03:13:27;92979.72;;;11.28;49.65
49393;BME280;35268;42.642;23.308;2023-04-01T03:15:52;92972.91;;;11.30;50.32
49393;BME280;35268;42.642;23.308;2023-04-01T03:18:18;92979.13;;;11.34;50.12
49393;BME280;35268;42.642;23.308;2023-04-01T03:20:44;92970.25;;;11.30;49.52
49393;BME280;35268;42.642;23.308;2023-04-01T03:23:09;92973.34;;;11.32;50.45
49393;BME280;35268;42.642;23.308;2023-04-01T03:25:35;93003.94;;;11.22;50.80
49393;BME280;35268;42.642;23.308;2023-04-01T03:28:01;92975.19;;;11.16;47.66
49393;BME280;35268;42.642;23.308;2023-04-01T03:30:27;92982.09;;;11.04;50.34
49393;BME280;35268;42.642;23.308;2023-04-01T03:32:53;92984.53;;;11.10;51.89
49393;BME280;35268;42.642;23.308;2023-04-01T03:35:18;92972.13;;;11.01;53.10
49393;BME280;35268;42.642;23.308;2023-04-01T03:37:44;92972.44;;;11.00;55.34
49393;BME280;35268;42.642;23.308;2023-04-01T03:40:10;92965.47;;;10.95;51.88
49393;BME280;35268;42.642;23.308;2023-04-01T03:42:35;92967.66;;;11.06;52.74
49393;BME280;35268;42.642;23.308;2023-04-01T03:45:02;92954.84;;;11.11;54.32
49393;BME280;35268;42.642;23.308;2023-04-01T03:47:28;92947.38;;;11.17;55.78
49393;BME280;35268;42.642;23.308;2023-04-01T03:49:53;92938.13;;;11.27;56.85
49393;BME280;35268;42.642;23.308;2023-04-01T03:52:19;92924.03;;;11.26;55.58
49393;BME280;35268;42.642;23.308;2023-04-01T03:54:45;92923.94;;;11.22;56.57
49393;BME280;35268;42.642;23.308;2023-04-01T03:57:10;92902.69;;;11.26;56.03
49393;BME280;35268;42.642;23.308;2023-04-01T03:59:36;92897.78;;;11.28;56.32
49393;BME280;35268;42.642;23.308;2023-04-01T04:02:01;92882.22;;;11.30;56.13
49393;BME280;35268;42.642;23.308;2023-04-01T04:04:27;92876.78;;;11.27;55.91
49393;BME280;35268;42.642;23.308;2023-04-01T04:06:53;92876.47;;;11.28;56.07
49393;BME280;35268;42.642;23.308;2023-04-01T04:09:19;92879.56;;;11.30;58.07
49393;BME280;35268;42.642;23.308;2023-04-01T04:11:45;92866.88;;;11.27;57.18
49393;BME280;35268;42.642;23.308;2023-04-01T04:14:10;92850.00;;;11.23;56.73
49393;BME280;35268;42.642;23.308;2023-04-01T04:16:35;92850.38;;;11.21;57.15
49393;BME280;35268;42.642;23.308;2023-04-01T04:19:02;92844.69;;;11.23;57.59
49393;BME280;35268;42.642;23.308;2023-04-01T04:21:28;92850.13;;;11.27;57.02
49393;BME280;35268;42.642;23.308;2023-04-01T04:23:53;92843.75;;;11.31;56.57
49393;BME280;35268;42.642;23.308;2023-04-01T04:26:19;92834.22;;;11.30;55.39
49393;BME280;35268;42.642;23.308;2023-04-01T04:28:44;92837.84;;;11.38;55.29
49393;BME280;35268;42.642;23.308;2023-04-01T04:31:10;92837.56;;;11.43;55.34
49393;BME280;35268;42.642;23.308;2023-04-01T04:33:35;92830.00;;;11.45;54.71
49393;BME280;35268;42.642;23.308;2023-04-01T04:36:02;92821.66;;;11.47;53.98
49393;BME280;35268;42.642;23.308;2023-04-01T04:38:28;92831.47;;;11.42;53.34
49393;BME280;35268;42.642;23.308;2023-04-01T04:40:54;92825.38;;;11.42;52.92
49393;BME280;35268;42.642;23.308;2023-04-01T04:43:20;92825.59;;;11.37;53.01
49393;BME280;35268;42.642;23.308;2023-04-01T04:45:45;92818.19;;;11.30;53.59
49393;BME280;35268;42.642;23.308;2023-04-01T04:48:12;92816.03;;;11.20;54.31
49393;BME280;35268;42.642;23.308;2023-04-01T04:50:41;92812.63;;;11.07;55.11
49393;BME280;35268;42.642;23.308;2023-04-01T04:53:17;92815.72;;;10.93;56.10
49393;BME280;35268;42.642;23.308;2023-04-01T04:55:45;92810.19;;;10.86;56.55
49393;BME280;35268;42.642;23.308;2023-04-01T04:58:11;92804.91;;;10.74;56.59
49393;BME280;35268;42.642;23.308;2023-04-01T05:00:36;92807.66;;;10.49;57.53
49393;BME280;35268;42.642;23.308;2023-04-01T05:03:02;92801.22;;;10.38;57.99
49393;BME280;35268;42.642;23.308;2023-04-01T05:05:27;92800.13;;;10.39;58.05
49393;BME280;35268;42.642;23.308;2023-04-01T05:07:53;92795.13;;;10.37;57.98
49393;BME280;35268;42.642;23.308;2023-04-01T05:10:18;92802.91;;;10.42;58.79
49393;BME280;35268;42.642;23.308;2023-04-01T05:12:45;92796.34;;;10.28;58.13
49393;BME280;35268;42.642;23.308;2023-04-01T05:15:11;92793.16;;;10.22;57.75
49393;BME280;35268;42.642;23.308;2023-04-01T05:17:37;92788.94;;;10.21;58.40
49393;BME280;35268;42.642;23.308;2023-04-01T05:20:02;92778.84;;;10.27;58.69
49393;BME280;35268;42.642;23.308;2023-04-01T05:22:28;92776.59;;;10.29;58.00
49393;BME280;35268;42.642;23.308;2023-04-01T05:24:53;92768.84;;;10.23;58.52
49393;BME280;35268;42.642;23.308;2023-04-01T05:27:19;92763.88;;;10.22;58.66
49393;BME280;35268;42.642;23.308;2023-04-01T05:29:44;92753.09;;;10.31;58.60
49393;BME280;35268;42.642;23.308;2023-04-01T05:32:10;92769.97;;;10.35;58.85
49393;BME280;35268;42.642;23.308;2023-04-01T05:34:35;92757.09;;;10.37;59.29
49393;BME280;35268;42.642;23.308;2023-04-01T05:37:01;92755.63;;;10.39;59.72
49393;BME280;35268;42.642;23.308;2023-04-01T05:39:26;92760.38;;;10.46;58.82
49393;BME280;35268;42.642;23.308;2023-04-01T05:41:51;92754.38;;;10.49;58.15
49393;BME280;35268;42.642;23.308;2023-04-01T05:44:17;92764.69;;;10.51;57.79
49393;BME280;35268;42.642;23.308;2023-04-01T05:46:43;92759.22;;;10.59;57.53
49393;BME280;35268;42.642;23.308;2023-04-01T05:49:08;92762.41;;;10.65;57.18
49393;BME280;35268;42.642;23.308;2023-04-01T05:51:33;92751.28;;;10.75;57.02
49393;BME280;35268;42.642;23.308;2023-04-01T05:53:59;92757.75;;;10.90;56.94
49393;BME280;35268;42.642;23.308;2023-04-01T05:56:24;92757.41;;;10.92;55.78
49393;BME280;35268;42.642;23.308;2023-04-01T05:58:54;92762.56;;;11.00;55.05
49393;BME280;35268;42.642;23.308;2023-04-01T06:01:20;92743.56;;;11.02;55.46
49393;BME280;35268;42.642;23.308;2023-04-01T06:03:45;92757.69;;;11.18;55.05
49393;BME280;35268;42.642;23.308;2023-04-01T06:06:19;92755.91;;;11.38;54.70
49393;BME280;35268;42.642;23.308;2023-04-01T06:08:48;92756.81;;;11.62;54.42
49393;BME280;35268;42.642;23.308;2023-04-01T06:11:35;92749.75;;;11.85;52.06
49393;BME280;35268;42.642;23.308;2023-04-01T06:14:24;92749.66;;;11.98;50.48
49393;BME280;35268;42.642;23.308;2023-04-01T06:20:03;92764.47;;;12.11;50.57
49393;BME280;35268;42.642;23.308;2023-04-01T06:25:14;92760.94;;;12.07;50.15
49393;BME280;35268;42.642;23.308;2023-04-01T06:28:05;92762.91;;;12.10;50.11
49393;BME280;35268;42.642;23.308;2023-04-01T06:36:39;92728.63;;;12.51;49.40
49393;BME280;35268;42.642;23.308;2023-04-01T06:47:34;92722.47;;;12.90;48.22
49393;BME280;35268;42.642;23.308;2023-04-01T06:53:00;92723.94;;;12.87;47.78
49393;BME280;35268;42.642;23.308;2023-04-01T06:58:21;92705.91;;;13.03;48.27
49393;BME280;35268;42.642;23.308;2023-04-01T07:00:51;92701.50;;;13.15;47.83
49393;BME280;35268;42.642;23.308;2023-04-01T07:03:29;92695.97;;;13.27;47.91
49393;BME280;35268;42.642;23.308;2023-04-01T07:06:02;92691.72;;;13.46;47.59
49393;BME280;35268;42.642;23.308;2023-04-01T07:08:29;92706.78;;;13.57;45.13
49393;BME280;35268;42.642;23.308;2023-04-01T07:11:06;92702.56;;;13.56;45.19
49393;BME280;35268;42.642;23.308;2023-04-01T07:16:36;92699.13;;;13.56;46.27
49393;BME280;35268;42.642;23.308;2023-04-01T07:21:58;92683.69;;;13.46;45.06
49393;BME280;35268;42.642;23.308;2023-04-01T07:24:27;92697.47;;;13.48;46.22
49393;BME280;35268;42.642;23.308;2023-04-01T07:26:56;92719.34;;;13.53;46.44
49393;BME280;35268;42.642;23.308;2023-04-01T07:29:23;92709.84;;;13.56;46.11
49393;BME280;35268;42.642;23.308;2023-04-01T07:37:34;92708.66;;;13.30;46.56
49393;BME280;35268;42.642;23.308;2023-04-01T07:49:06;92704.16;;;12.92;49.03
49393;BME280;35268;42.642;23.308;2023-04-01T07:54:18;92687.94;;;12.81;49.78
49393;BME280;35268;42.642;23.308;2023-04-01T08:00:02;92707.75;;;12.80;50.78
49393;BME280;35268;42.642;23.308;2023-04-01T08:05:40;92687.50;;;12.79;50.76
49393;BME280;35268;42.642;23.308;2023-04-01T08:16:35;92654.09;;;12.92;50.85
49393;BME280;35268;42.642;23.308;2023-04-01T08:22:01;92629.25;;;13.38;50.14
49393;BME280;35268;42.642;23.308;2023-04-01T08:24:41;92646.81;;;13.62;49.30
49393;BME280;35268;42.642;23.308;2023-04-01T08:27:35;92609.66;;;13.87;40.20
49393;BME280;35268;42.642;23.308;2023-04-01T08:30:04;92635.69;;;14.20;47.40
49393;BME280;35268;42.642;23.308;2023-04-01T08:32:42;92615.97;;;14.36;47.12
49393;BME280;35268;42.642;23.308;2023-04-01T08:37:39;92575.78;;;14.77;38.18
49393;BME280;35268;42.642;23.308;2023-04-01T08:43:07;92549.91;;;15.65;40.20
49393;BME280;35268;42.642;23.308;2023-04-01T08:56:20;92580.50;;;16.23;42.05
49393;BME280;35268;42.642;23.308;2023-04-01T08:58:59;92567.81;;;16.20;39.24
49393;BME280;35268;42.642;23.308;2023-04-01T09:16:17;92562.22;;;17.18;36.84
49393;BME280;35268;42.642;23.308;2023-04-01T09:22:32;92558.38;;;17.23;37.60
49393;BME280;35268;42.642;23.308;2023-04-01T09:28:09;92544.53;;;17.21;36.08
49393;BME280;35268;42.642;23.308;2023-04-01T09:31:28;92541.44;;;17.15;33.04
49393;BME280;35268;42.642;23.308;2023-04-01T09:33:52;92533.38;;;17.26;34.78
49393;BME280;35268;42.642;23.308;2023-04-01T09:59:54;92499.97;;;18.82;32.68
49393;BME280;35268;42.642;23.308;2023-04-01T10:11:36;92472.19;;;19.61;28.19
49393;BME280;35268;42.642;23.308;2023-04-01T10:25:57;92448.53;;;20.57;25.58
49393;BME280;35268;42.642;23.308;2023-04-01T10:36:52;92412.63;;;20.30;26.76
49393;BME280;35268;42.642;23.308;2023-04-01T10:53:34;92398.84;;;19.62;26.38
49393;BME280;35268;42.642;23.308;2023-04-01T10:56:11;92389.16;;;19.65;27.19
49393;BME280;35268;42.642;23.308;2023-04-01T11:01:54;92389.63;;;19.91;26.48
49393;BME280;35268;42.642;23.308;2023-04-01T11:04:43;92377.81;;;20.04;27.11
49393;BME280;35268;42.642;23.308;2023-04-01T11:17:09;92400.69;;;20.00;28.50
49393;BME280;35268;42.642;23.308;2023-04-01T11:43:40;92533.00;;;16.84;39.74
49393;BME280;35268;42.642;23.308;2023-04-01T11:46:19;92568.19;;;16.11;43.24
49393;BME280;35268;42.642;23.308;2023-04-01T12:02:29;92674.16;;;10.10;78.86
49393;BME280;35268;42.642;23.308;2023-04-01T12:05:37;92649.97;;;10.03;80.14
49393;BME280;35268;42.642;23.308;2023-04-01T12:11:09;92632.69;;;9.97;84.07
49393;BME280;35268;42.642;23.308;2023-04-01T12:13:59;92635.31;;;10.09;85.61
49393;BME280;35268;42.642;23.308;2023-04-01T12:19:50;92630.22;;;10.60;86.60
49393;BME280;35268;42.642;23.308;2023-04-01T12:27:44;92620.41;;;10.96;76.11
49393;BME280;35268;42.642;23.308;2023-04-01T12:30:35;92629.69;;;11.02;75.53
49393;BME280;35268;42.642;23.308;2023-04-01T12:36:17;92653.25;;;11.00;72.28
49393;BME280;35268;42.642;23.308;2023-04-01T12:41:24;92655.94;;;11.00;73.69
49393;BME280;35268;42.642;23.308;2023-04-01T12:44:07;92654.91;;;10.89;71.86
49393;BME280;35268;42.642;23.308;2023-04-01T12:52:12;92652.41;;;10.96;74.62
49393;BME280;35268;42.642;23.308;2023-04-01T13:17:03;92547.81;;;11.77;65.07
49393;BME280;35268;42.642;23.308;2023-04-01T13:19:40;92537.63;;;12.45;63.64
49393;BME280;35268;42.642;23.308;2023-04-01T13:25:14;92539.59;;;14.19;54.50
49393;BME280;35268;42.642;23.308;2023-04-01T13:27:44;92520.72;;;14.90;64.81
49393;BME280;35268;42.642;23.308;2023-04-01T13:35:48;92552.31;;;15.77;58.83
49393;BME280;35268;42.642;23.308;2023-04-01T13:49:55;92515.25;;;14.76;50.30
49393;BME280;35268;42.642;23.308;2023-04-01T14:19:32;92458.81;;;16.65;38.11
49393;BME280;35268;42.642;23.308;2023-04-01T14:22:19;92456.84;;;16.09;38.08
49393;BME280;35268;42.642;23.308;2023-04-01T14:30:30;92439.41;;;15.59;43.34
49393;BME280;35268;42.642;23.308;2023-04-01T14:33:50;92452.84;;;15.59;42.17
49393;BME280;35268;42.642;23.308;2023-04-01T14:50:21;92446.25;;;20.01;32.71
49393;BME280;35268;42.642;23.308;2023-04-01T15:00:54;92444.56;;;24.19;27.64
49393;BME280;35268;42.642;23.308;2023-04-01T15:03:32;92448.19;;;25.40;31.54
49393;BME280;35268;42.642;23.308;2023-04-01T15:17:19;92466.06;;;22.43;35.09
49393;BME280;35268;42.642;23.308;2023-04-01T15:25:43;92470.53;;;20.36;34.07
49393;BME280;35268;42.642;23.308;2023-04-01T15:31:29;92470.50;;;17.69;35.13
49393;BME280;35268;42.642;23.308;2023-04-01T15:36:43;92475.69;;;16.23;37.32
49393;BME280;35268;42.642;23.308;2023-04-01T15:39:22;92473.50;;;15.48;38.93
49393;BME280;35268;42.642;23.308;2023-04-01T15:53:09;92700.78;;;13.18;50.09
49393;BME280;35268;42.642;23.308;2023-04-01T15:59:18;92709.50;;;10.23;63.21
49393;BME280;35268;42.642;23.308;2023-04-01T16:01:51;92734.34;;;9.13;70.76
49393;BME280;35268;42.642;23.308;2023-04-01T16:04:59;92739.16;;;8.53;75.53
49393;BME280;35268;42.642;23.308;2023-04-01T16:15:30;92778.25;;;7.21;85.11
49393;BME280;35268;42.642;23.308;2023-04-01T16:20:46;92774.00;;;6.81;88.50
49393;BME280;35268;42.642;23.308;2023-04-01T16:24:04;92782.63;;;6.70;88.90
49393;BME280;35268;42.642;23.308;2023-04-01T16:28:55;92786.31;;;6.77;88.53
49393;BME280;35268;42.642;23.308;2023-04-01T16:31:37;92783.06;;;6.72;88.13
49393;BME280;35268;42.642;23.308;2023-04-01T16:34:21;92751.00;;;6.65;87.45
49393;BME280;35268;42.642;23.308;2023-04-01T16:37:07;92795.53;;;6.62;87.37
49393;BME280;35268;42.642;23.308;2023-04-01T16:40:09;92796.00;;;6.65;85.82
49393;BME280;35268;42.642;23.308;2023-04-01T16:42:56;92789.00;;;6.69;85.66
49393;BME280;35268;42.642;23.308;2023-04-01T16:45:38;92784.94;;;6.80;86.40
49393;BME280;35268;42.642;23.308;2023-04-01T16:48:42;92778.38;;;6.86;85.70
49393;BME280;35268;42.642;23.308;2023-04-01T16:51:16;92782.09;;;6.85;86.85
49393;BME280;35268;42.642;23.308;2023-04-01T16:53:53;92775.72;;;6.86;85.79
49393;BME280;35268;42.642;23.308;2023-04-01T16:56:38;92782.56;;;6.87;85.17
49393;BME280;35268;42.642;23.308;2023-04-01T16:59:15;92788.16;;;6.86;84.41
49393;BME280;35268;42.642;23.308;2023-04-01T17:02:13;92775.69;;;6.95;83.67
49393;BME280;35268;42.642;23.308;2023-04-01T17:05:11;92776.91;;;6.97;83.74
49393;BME280;35268;42.642;23.308;2023-04-01T17:08:09;92786.44;;;6.98;82.60
49393;BME280;35268;42.642;23.308;2023-04-01T17:10:48;92787.53;;;6.97;82.52
49393;BME280;35268;42.642;23.308;2023-04-01T17:14:10;92788.00;;;6.91;80.08
49393;BME280;35268;42.642;23.308;2023-04-01T17:16:50;92812.31;;;6.93;76.26
49393;BME280;35268;42.642;23.308;2023-04-01T17:19:30;92821.66;;;6.99;75.74
49393;BME280;35268;42.642;23.308;2023-04-01T17:25:28;92811.50;;;7.10;76.42
49393;BME280;35268;42.642;23.308;2023-04-01T17:30:18;92815.28;;;6.91;79.77
49393;BME280;35268;42.642;23.308;2023-04-01T17:33:15;92819.50;;;6.75;80.49
49393;BME280;35268;42.642;23.308;2023-04-01T17:53:14;92824.59;;;7.06;73.58
49393;BME280;35268;42.642;23.308;2023-04-01T17:58:20;92831.59;;;7.11;70.97
49393;BME280;35268;42.642;23.308;2023-04-01T18:07:33;92846.16;;;7.34;70.55
49393;BME280;35268;42.642;23.308;2023-04-01T18:10:12;92842.94;;;7.29;68.26
49393;BME280;35268;42.642;23.308;2023-04-01T18:20:54;92892.31;;;7.42;67.15
49393;BME280;35268;42.642;23.308;2023-04-01T18:26:02;92900.09;;;7.56;67.42
49393;BME280;35268;42.642;23.308;2023-04-01T18:28:44;92894.47;;;7.57;67.97
49393;BME280;35268;42.642;23.308;2023-04-01T18:31:24;92900.88;;;7.48;68.17
49393;BME280;35268;42.642;23.308;2023-04-01T18:34:10;92911.03;;;7.46;69.06
49393;BME280;35268;42.642;23.308;2023-04-01T18:36:53;92905.56;;;7.42;68.23
49393;BME280;35268;42.642;23.308;2023-04-01T18:39:39;92895.00;;;7.33;69.14
49393;BME280;35268;42.642;23.308;2023-04-01T18:42:38;92898.13;;;7.27;68.15
49393;BME280;35268;42.642;23.308;2023-04-01T18:48:01;92893.59;;;7.27;68.84
49393;BME280;35268;42.642;23.308;2023-04-01T18:50:58;92890.50;;;7.25;68.80
49393;BME280;35268;42.642;23.308;2023-04-01T18:53:47;92898.44;;;7.25;68.32
49393;BME280;35268;42.642;23.308;2023-04-01T18:59:06;92888.31;;;7.27;68.62
49393;BME280;35268;42.642;23.308;2023-04-01T19:09:45;92906.69;;;7.32;66.48
49393;BME280;35268;42.642;23.308;2023-04-01T19:12:26;92914.63;;;7.32;66.38
49393;BME280;35268;42.642;23.308;2023-04-01T19:15:00;92911.53;;;7.39;67.05
49393;BME280;35268;42.642;23.308;2023-04-01T19:22:53;92936.94;;;7.31;66.93
49393;BME280;35268;42.642;23.308;2023-04-01T19:25:38;92949.44;;;7.31;67.10
49393;BME280;35268;42.642;23.308;2023-04-01T19:28:28;92955.34;;;7.28;67.11
49393;BME280;35268;42.642;23.308;2023-04-01T19:31:01;92954.41;;;7.32;67.71
49393;BME280;35268;42.642;23.308;2023-04-01T19:41:39;92965.31;;;7.22;69.01
49393;BME280;35268;42.642;23.308;2023-04-01T19:46:53;92987.31;;;7.22;69.04
49393;BME280;35268;42.642;23.308;2023-04-01T19:54:57;93000.56;;;7.14;68.32
49393;BME280;35268;42.642;23.308;2023-04-01T20:00:44;92996.84;;;7.15;67.69
49393;BME280;35268;42.642;23.308;2023-04-01T20:06:35;92993.22;;;7.19;66.20
49393;BME280;35268;42.642;23.308;2023-04-01T20:14:49;92973.91;;;7.19;63.94
49393;BME280;35268;42.642;23.308;2023-04-01T20:17:22;92969.53;;;7.23;64.35
49393;BME280;35268;42.642;23.308;2023-04-01T20:23:05;92981.88;;;7.19;64.75
49393;BME280;35268;42.642;23.308;2023-04-01T20:47:10;92973.22;;;7.57;59.37
49393;BME280;35268;42.642;23.308;2023-04-01T20:49:45;92968.53;;;7.62;60.04
49393;BME280;35268;42.642;23.308;2023-04-01T20:52:37;92966.03;;;7.66;61.34
49393;BME280;35268;42.642;23.308;2023-04-01T21:03:43;92980.84;;;7.67;63.62
49393;BME280;35268;42.642;23.308;2023-04-01T21:08:42;92988.06;;;7.58;61.32
49393;BME280;35268;42.642;23.308;2023-04-01T21:22:32;92992.84;;;7.82;62.02
49393;BME280;35268;42.642;23.308;2023-04-01T21:27:49;92996.41;;;7.77;58.04
49393;BME280;35268;42.642;23.308;2023-04-01T21:49:48;93010.34;;;7.74;58.30
49393;BME280;35268;42.642;23.308;2023-04-01T22:00:41;93001.72;;;7.77;58.88
49393;BME280;35268;42.642;23.308;2023-04-01T22:14:09;92985.25;;;7.46;60.69
49393;BME280;35268;42.642;23.308;2023-04-01T22:19:27;92981.38;;;7.43;56.52
49393;BME280;35268;42.642;23.308;2023-04-01T22:32:49;92955.19;;;7.89;52.96
49393;BME280;35268;42.642;23.308;2023-04-01T22:38:18;92979.53;;;7.91;53.91
49393;BME280;35268;42.642;23.308;2023-04-01T22:43:56;92996.69;;;7.93;53.97
49393;BME280;35268;42.642;23.308;2023-04-01T22:46:26;92986.28;;;7.88;53.87
49393;BME280;35268;42.642;23.308;2023-04-01T22:49:12;93021.38;;;7.94;54.17
49393;BME280;35268;42.642;23.308;2023-04-01T22:55:09;93016.72;;;7.82;55.24
49393;BME280;35268;42.642;23.308;2023-04-01T22:57:51;93040.44;;;7.78;55.56
49393;BME280;35268;42.642;23.308;2023-04-01T23:00:26;93033.44;;;7.74;54.55
49393;BME280;35268;42.642;23.308;2023-04-01T23:05:30;93029.03;;;7.87;55.33
49393;BME280;35268;42.642;23.308;2023-04-01T23:11:02;93031.84;;;7.81;54.87
49393;BME280;35268;42.642;23.308;2023-04-01T23:13:37;93026.72;;;7.76;55.58
49393;BME280;35268;42.642;23.308;2023-04-01T23:16:05;93022.94;;;7.77;56.05
49393;BME280;35268;42.642;23.308;2023-04-01T23:18:48;93027.81;;;7.67;55.70
49393;BME280;35268;42.642;23.308;2023-04-01T23:21:26;93024.69;;;7.64;55.60
49393;BME280;35268;42.642;23.308;2023-04-01T23:24:41;93007.81;;;7.69;54.84
49393;BME280;35268;42.642;23.308;2023-04-01T23:27:07;93029.50;;;7.71;55.17
49393;BME280;35268;42.642;23.308;2023-04-01T23:29:36;93026.84;;;7.71;55.40
49393;BME280;35268;42.642;23.308;2023-04-01T23:32:05;93034.69;;;7.68;55.69
49393;BME280;35268;42.642;23.308;2023-04-01T23:34:38;93031.22;;;7.67;54.74
49393;BME280;35268;42.642;23.308;2023-04-01T23:37:14;93023.91;;;7.64;55.58
49393;BME280;35268;42.642;23.308;2023-04-01T23:39:44;93025.47;;;7.65;55.38
49393;BME280;35268;42.642;23.308;2023-04-01T23:42:30;93052.63;;;7.62;56.17
49393;BME280;35268;42.642;23.308;2023-04-01T23:45:05;93038.91;;;7.60;56.08